Time,TemperatureF,DewpointF,PressureIn,WindDirection,WindDirectionDegrees,WindSpeedMPH,WindSpeedGustMPH,Humidity,HourlyPrecipIn,Conditions,Clouds,dailyrainin,SoftwareType,DateUTC
2013-04-08 00:10:00,65.4,61.0,29.75,SW,219,8.0,18.0,85,0.00,,,0.00,weatherlink.com 1.10,2013-04-08 05:10:00,
2013-04-08 00:25:00,65.2,61.0,29.75,South,176,10.0,15.0,85,0.00,,,0.00,weatherlink.com 1.10,2013-04-08 05:25:00,
2013-04-08 00:40:00,65.1,61.0,29.76,SSW,205,9.0,15.0,86,0.00,,,0.00,weatherlink.com 1.10,2013-04-08 05:40:00,
2013-04-08 00:55:00,64.8,61.0,29.75,South,169,3.0,13.0,86,0.00,,,0.00,weatherlink.com 1.10,2013-04-08 05:55:00,
2013-04-08 01:10:00,64.6,60.0,29.75,SW,217,8.0,13.0,86,0.00,,,0.00,weatherlink.com 1.10,2013-04-08 06:10:00,
2013-04-08 01:25:00,64.2,60.0,29.75,SW,215,8.0,16.0,87,0.00,,,0.00,weatherlink.com 1.10,2013-04-08 06:25:00,
2013-04-08 01:41:00,64.1,61.0,29.75,SSE,148,3.0,12.0,88,0.00,,,0.00,weatherlink.com 1.10,2013-04-08 06:41:00,
2013-04-08 01:56:00,63.9,60.0,29.75,SW,225,5.0,13.0,88,0.00,,,0.00,weatherlink.com 1.10,2013-04-08 06:56:00,
2013-04-08 02:11:00,63.7,61.0,29.75,SSW,210,5.0,13.0,89,0.00,,,0.00,weatherlink.com 1.10,2013-04-08 07:11:00,
2013-04-08 02:26:00,63.6,60.0,29.74,SSW,197,4.0,17.0,88,0.00,,,0.00,weatherlink.com 1.10,2013-04-08 07:26:00,
2013-04-08 02:41:00,63.5,60.0,29.73,SSW,210,9.0,16.0,88,0.00,,,0.00,weatherlink.com 1.10,2013-04-08 07:41:00,
2013-04-08 02:56:00,63.4,60.0,29.73,SSW,200,5.0,15.0,88,0.00,,,0.00,weatherlink.com 1.10,2013-04-08 07:56:00,
2013-04-08 03:11:00,63.3,60.0,29.72,South,187,7.0,15.0,89,0.00,,,0.00,weatherlink.com 1.10,2013-04-08 08:11:00,
2013-04-08 03:41:00,63.4,60.0,29.70,SSW,202,6.0,11.0,89,0.00,,,0.00,weatherlink.com 1.10,2013-04-08 08:41:00,
2013-04-08 03:56:00,63.6,60.0,29.69,South,184,4.0,14.0,89,0.00,,,0.00,weatherlink.com 1.10,2013-04-08 08:56:00,
2013-04-08 04:41:00,63.8,60.0,29.69,SE,145,6.0,11.0,88,0.00,,,0.00,weatherlink.com 1.10,2013-04-08 09:41:00,
2013-04-08 05:11:00,63.9,60.0,29.68,SSW,210,6.0,10.0,88,0.00,,,0.00,weatherlink.com 1.10,2013-04-08 10:11:00,
2013-04-08 05:26:00,63.9,60.0,29.68,SW,226,4.0,8.0,88,0.00,,,0.00,weatherlink.com 1.10,2013-04-08 10:26:00,
2013-04-08 06:11:00,63.9,61.0,29.68,SSW,211,3.0,7.0,90,0.00,,,0.00,weatherlink.com 1.10,2013-04-08 11:11:00,
2013-04-08 06:26:00,64.0,61.0,29.68,South,186,7.0,11.0,90,0.00,,,0.00,weatherlink.com 1.10,2013-04-08 11:26:00,
2013-04-08 06:41:00,64.0,61.0,29.68,South,181,2.0,9.0,90,0.00,,,0.00,weatherlink.com 1.10,2013-04-08 11:41:00,
2013-04-08 06:56:00,64.1,61.0,29.68,SSW,194,4.0,9.0,90,0.00,,,0.00,weatherlink.com 1.10,2013-04-08 11:56:00,
2013-04-08 07:11:00,64.2,61.0,29.69,SSE,155,3.0,8.0,90,0.00,,,0.00,weatherlink.com 1.10,2013-04-08 12:11:00,
2013-04-08 07:26:00,64.3,61.0,29.69,SW,226,5.0,10.0,90,0.00,,,0.00,weatherlink.com 1.10,2013-04-08 12:26:00,
2013-04-08 07:41:00,64.3,61.0,29.69,WSW,242,8.0,11.0,90,0.00,,,0.00,weatherlink.com 1.10,2013-04-08 12:41:00,
2013-04-08 07:56:00,64.4,62.0,29.69,SW,217,5.0,7.0,90,0.00,,,0.00,weatherlink.com 1.10,2013-04-08 12:56:00,
2013-04-08 08:11:00,64.6,62.0,29.69,SW,214,4.0,12.0,90,0.00,,,0.00,weatherlink.com 1.10,2013-04-08 13:11:00,
2013-04-08 08:26:00,64.8,62.0,29.70,SSW,203,4.0,9.0,89,0.00,,,0.00,weatherlink.com 1.10,2013-04-08 13:26:00,
2013-04-08 08:41:00,64.7,62.0,29.70,SW,214,5.0,11.0,90,0.00,,,0.00,weatherlink.com 1.10,2013-04-08 13:41:00,
2013-04-08 09:11:00,64.4,62.0,29.70,WSW,239,4.0,9.0,92,0.00,,,0.00,weatherlink.com 1.10,2013-04-08 14:11:00,
2013-04-08 09:26:00,64.4,62.0,29.70,SSW,206,3.0,8.0,93,0.00,,,0.00,weatherlink.com 1.10,2013-04-08 14:26:00,
2013-04-08 09:41:00,64.6,63.0,29.70,SW,214,6.0,12.0,93,0.00,,,0.00,weatherlink.com 1.10,2013-04-08 14:41:00,
2013-04-08 09:56:00,64.7,63.0,29.70,South,186,3.0,7.0,93,0.00,,,0.00,weatherlink.com 1.10,2013-04-08 14:56:00,
2013-04-08 10:11:00,64.8,63.0,29.70,SW,214,6.0,10.0,93,0.00,,,0.00,weatherlink.com 1.10,2013-04-08 15:11:00,
2013-04-08 10:26:00,65.4,63.0,29.70,SW,229,5.0,11.0,92,0.00,,,0.00,weatherlink.com 1.10,2013-04-08 15:26:00,
2013-04-08 10:41:00,66.3,63.0,29.70,SW,228,8.0,12.0,90,0.00,,,0.00,weatherlink.com 1.10,2013-04-08 15:41:00,
2013-04-08 10:56:00,66.9,64.0,29.70,SSW,213,6.0,13.0,89,0.00,,,0.00,weatherlink.com 1.10,2013-04-08 15:56:00,
2013-04-08 11:11:00,67.1,64.0,29.70,SW,221,9.0,12.0,89,0.00,,,0.00,weatherlink.com 1.10,2013-04-08 16:11:00,
2013-04-08 11:26:00,67.7,64.0,29.70,SW,215,10.0,11.0,88,0.00,,,0.00,weatherlink.com 1.10,2013-04-08 16:26:00,
2013-04-08 11:41:00,67.7,64.0,29.70,SSE,155,13.0,16.0,88,0.00,,,0.00,weatherlink.com 1.10,2013-04-08 16:41:00,
2013-04-08 11:57:00,67.6,64.0,29.70,SE,132,5.0,10.0,89,0.00,,,0.00,weatherlink.com 1.10,2013-04-08 16:57:00,
2013-04-08 12:12:00,67.5,64.0,29.70,WSW,252,5.0,12.0,89,0.00,,,0.00,weatherlink.com 1.10,2013-04-08 17:12:00,
2013-04-08 12:27:00,67.7,64.0,29.70,SSW,194,4.0,12.0,89,0.00,,,0.00,weatherlink.com 1.10,2013-04-08 17:27:00,
2013-04-08 12:58:00,67.7,65.0,29.69,SE,134,8.0,10.0,90,0.00,,,0.00,weatherlink.com 1.10,2013-04-08 17:58:00,
2013-04-08 13:12:00,67.6,65.0,29.69,SW,217,6.0,14.0,91,0.00,,,0.00,weatherlink.com 1.10,2013-04-08 18:12:00,
2013-04-08 13:27:00,67.7,65.0,29.68,SW,229,7.0,11.0,91,0.00,,,0.00,weatherlink.com 1.10,2013-04-08 18:27:00,
2013-04-08 13:42:00,67.9,65.0,29.68,SSW,198,7.0,10.0,91,0.00,,,0.00,weatherlink.com 1.10,2013-04-08 18:42:00,
2013-04-08 13:57:00,67.7,65.0,29.67,SW,214,7.0,15.0,91,0.00,,,0.00,weatherlink.com 1.10,2013-04-08 18:57:00,
2013-04-08 14:12:00,67.1,65.0,29.67,SW,221,4.0,11.0,92,0.00,,,0.00,weatherlink.com 1.10,2013-04-08 19:12:00,
2013-04-08 14:27:00,66.9,65.0,29.66,SW,219,5.0,7.0,94,0.00,,,0.00,weatherlink.com 1.10,2013-04-08 19:27:00,
2013-04-08 14:42:00,67.0,65.0,29.65,SW,225,4.0,11.0,93,0.00,,,0.00,weatherlink.com 1.10,2013-04-08 19:42:00,
2013-04-08 14:57:00,67.6,65.0,29.65,WSW,238,5.0,10.0,91,0.00,,,0.00,weatherlink.com 1.10,2013-04-08 19:57:00,
2013-04-08 15:12:00,68.9,66.0,29.64,SSW,205,2.0,11.0,89,0.00,,,0.00,weatherlink.com 1.10,2013-04-08 20:12:00,
2013-04-08 15:27:00,69.8,66.0,29.64,SSW,204,3.0,12.0,86,0.00,,,0.00,weatherlink.com 1.10,2013-04-08 20:27:00,
2013-04-08 15:42:00,69.6,65.0,29.64,SSW,208,6.0,15.0,86,0.00,,,0.00,weatherlink.com 1.10,2013-04-08 20:42:00,
2013-04-08 15:57:00,70.9,66.0,29.63,SSW,194,3.0,10.0,84,0.00,,,0.00,weatherlink.com 1.10,2013-04-08 20:57:00,
2013-04-08 16:12:00,71.6,66.0,29.63,ESE,122,10.0,12.0,83,0.00,,,0.00,weatherlink.com 1.10,2013-04-08 21:12:00,
2013-04-08 16:27:00,72.5,66.0,29.61,South,174,9.0,13.0,80,0.00,,,0.00,weatherlink.com 1.10,2013-04-08 21:27:00,
2013-04-08 16:42:00,72.7,66.0,29.61,SSE,153,10.0,13.0,80,0.00,,,0.00,weatherlink.com 1.10,2013-04-08 21:42:00,
2013-04-08 16:57:00,72.3,66.0,29.61,South,173,5.0,13.0,80,0.00,,,0.00,weatherlink.com 1.10,2013-04-08 21:57:00,
2013-04-08 17:27:00,72.8,66.0,29.59,SE,127,6.0,15.0,80,0.00,,,0.00,weatherlink.com 1.10,2013-04-08 22:27:00,
2013-04-08 17:42:00,72.4,66.0,29.59,SSW,212,7.0,15.0,80,0.00,,,0.00,weatherlink.com 1.10,2013-04-08 22:42:00,
2013-04-08 17:57:00,74.2,67.0,29.60,SW,226,5.0,18.0,77,0.00,,,0.00,weatherlink.com 1.10,2013-04-08 22:57:00,
2013-04-08 18:12:00,73.8,66.0,29.60,South,190,6.0,16.0,76,0.00,,,0.00,weatherlink.com 1.10,2013-04-08 23:12:00,
2013-04-08 18:27:00,73.5,66.0,29.60,SW,219,3.0,14.0,76,0.00,,,0.00,weatherlink.com 1.10,2013-04-08 23:27:00,
2013-04-08 18:42:00,73.3,66.0,29.60,SSW,208,9.0,11.0,77,0.00,,,0.00,weatherlink.com 1.10,2013-04-08 23:42:00,
2013-04-08 18:57:00,72.8,66.0,29.60,SW,215,2.0,10.0,78,0.00,,,0.00,weatherlink.com 1.10,2013-04-08 23:57:00,
2013-04-08 19:12:00,72.0,65.0,29.60,ESE,104,4.0,11.0,79,0.00,,,0.00,weatherlink.com 1.10,2013-04-09 00:12:00,
2013-04-08 19:27:00,71.6,65.0,29.59,SE,145,3.0,9.0,80,0.00,,,0.00,weatherlink.com 1.10,2013-04-09 00:27:00,
2013-04-08 19:42:00,71.1,65.0,29.60,SSW,203,7.0,13.0,81,0.00,,,0.00,weatherlink.com 1.10,2013-04-09 00:42:00,
2013-04-08 19:57:00,70.7,65.0,29.60,SSE,165,3.0,12.0,83,0.00,,,0.00,weatherlink.com 1.10,2013-04-09 00:57:00,
2013-04-08 20:12:00,70.1,65.0,29.60,SE,134,5.0,12.0,84,0.00,,,0.00,weatherlink.com 1.10,2013-04-09 01:12:00,
2013-04-08 20:27:00,69.6,65.0,29.60,South,190,3.0,14.0,85,0.00,,,0.00,weatherlink.com 1.10,2013-04-09 01:27:00,
2013-04-08 20:42:00,69.2,65.0,29.60,SSW,203,5.0,15.0,85,0.00,,,0.00,weatherlink.com 1.10,2013-04-09 01:42:00,
2013-04-08 20:57:00,68.9,65.0,29.60,SW,214,7.0,14.0,86,0.00,,,0.00,weatherlink.com 1.10,2013-04-09 01:57:00,
2013-04-08 21:12:00,68.6,64.0,29.61,SE,146,9.0,12.0,86,0.00,,,0.00,weatherlink.com 1.10,2013-04-09 02:12:00,
2013-04-08 21:27:00,68.6,65.0,29.62,SSE,148,6.0,14.0,87,0.00,,,0.00,weatherlink.com 1.10,2013-04-09 02:27:00,
2013-04-08 21:42:00,68.5,65.0,29.62,SSW,193,6.0,16.0,87,0.00,,,0.00,weatherlink.com 1.10,2013-04-09 02:42:00,
2013-04-08 21:57:00,68.4,64.0,29.63,SSE,149,6.0,17.0,87,0.00,,,0.00,weatherlink.com 1.10,2013-04-09 02:57:00,
2013-04-08 22:12:00,67.9,64.0,29.63,SSW,208,4.0,16.0,88,0.00,,,0.00,weatherlink.com 1.10,2013-04-09 03:12:00,
2013-04-08 22:27:00,67.7,64.0,29.63,SSW,208,6.0,16.0,88,0.00,,,0.00,weatherlink.com 1.10,2013-04-09 03:27:00,
2013-04-08 22:42:00,67.3,64.0,29.63,SSW,200,14.0,18.0,89,0.00,,,0.00,weatherlink.com 1.10,2013-04-09 03:42:00,
2013-04-08 22:57:00,67.1,64.0,29.64,SSW,210,4.0,17.0,90,0.00,,,0.00,weatherlink.com 1.10,2013-04-09 03:57:00,
2013-04-08 23:12:00,66.9,64.0,29.64,SE,141,14.0,17.0,90,0.00,,,0.00,weatherlink.com 1.10,2013-04-09 04:12:00,
2013-04-08 23:27:00,66.6,64.0,29.64,ESE,109,16.0,17.0,91,0.00,,,0.00,weatherlink.com 1.10,2013-04-09 04:27:00,
2013-04-08 23:43:00,66.6,64.0,29.64,South,177,8.0,19.0,91,0.00,,,0.00,weatherlink.com 1.10,2013-04-09 04:43:00,
2013-04-08 23:58:00,66.4,64.0,29.64,SE,142,11.0,16.0,92,0.00,,,0.00,weatherlink.com 1.10,2013-04-09 04:58:00,